Time;durP1;ratioP1;P1;durP2;ratioP2;P2;SDS_P1;SDS_P2;PMS_P1;PMS_P2;Temp;Humidity;BMP_temperature;BMP_pressure;BME280_temperature;BME280_humidity;BME280_pressure;Samples;Min_cycle;Max_cycle;Signal;HPM_P1;HPM_P2
2023/03/05 00:00:37;;;;;;;10.63;2.22;;;;;;;;;;5115324;28;20242;-81
2023/03/05 00:03:03;;;;;;;8.35;2.03;;;;;;;;;;5097416;28;20175;-81
2023/03/05 00:05:29;;;;;;;9.18;3.40;;;;;;;;;;5115678;28;20285;-81
2023/03/05 00:07:55;;;;;;;7.47;4.32;;;;;;;;;;5115580;28;20219;-81
2023/03/05 00:10:21;;;;;;;6.57;2.80;;;;;;;;;;5097169;28;20667;-80
2023/03/05 00:12:47;;;;;;;8.90;2.85;;;;;;;;;;5097498;28;20227;-80
2023/03/05 00:15:13;;;;;;;12.70;2.40;;;;;;;;;;5096805;28;20585;-80
2023/03/05 00:17:39;;;;;;;16.33;3.10;;;;;;;;;;5115591;28;20409;-81
2023/03/05 00:20:05;;;;;;;16.13;2.95;;;;;;;;;;5097718;28;20574;-80
2023/03/05 00:22:31;;;;;;;7.35;1.77;;;;;;;;;;5097258;28;20180;-81
2023/03/05 00:24:57;;;;;;;9.87;2.40;;;;;;;;;;5115331;28;20182;-80
2023/03/05 00:27:23;;;;;;;9.55;2.20;;;;;;;;;;5097444;28;20402;-80
2023/03/05 00:29:49;;;;;;;5.83;2.23;;;;;;;;;;5115545;28;20179;-81
2023/03/05 00:32:15;;;;;;;8.93;2.17;;;;;;;;;;5097039;28;20428;-80
2023/03/05 00:34:41;;;;;;;5.85;1.77;;;;;;;;;;5097338;28;20210;-80
2023/03/05 00:37:07;;;;;;;9.55;2.13;;;;;;;;;;5115989;28;20627;-80
2023/03/05 00:39:33;;;;;;;8.00;2.10;;;;;;;;;;5097180;28;20241;-80
2023/03/05 00:41:59;;;;;;;5.73;1.93;;;;;;;;;;5115029;28;20590;-80
2023/03/05 00:44:25;;;;;;;3.63;2.03;;;;;;;;;;5097093;28;20409;-80
2023/03/05 00:46:51;;;;;;;6.32;1.85;;;;;;;;;;5079885;28;20408;-81
2023/03/05 00:49:17;;;;;;;11.20;2.22;;;;;;;;;;5115271;28;20186;-81
2023/03/05 00:51:43;;;;;;;16.30;2.53;;;;;;;;;;5096807;28;20209;-80
2023/03/05 00:54:09;;;;;;;7.57;2.10;;;;;;;;;;5097363;28;20175;-80
2023/03/05 00:56:35;;;;;;;5.30;2.03;;;;;;;;;;5115536;28;20401;-81
2023/03/05 00:59:01;;;;;;;12.48;2.50;;;;;;;;;;5114709;28;20512;-81
2023/03/05 01:01:27;;;;;;;9.85;2.10;;;;;;;;;;5114705;28;20754;-81
2023/03/05 01:03:56;;;;;;;9.88;1.95;;;;;;;;;;5079746;28;20505;-80
2023/03/05 01:06:22;;;;;;;6.75;2.30;;;;;;;;;;5096424;28;20251;-80
2023/03/05 01:08:48;;;;;;;10.00;2.20;;;;;;;;;;5096824;28;20176;-81
2023/03/05 01:11:14;;;;;;;9.45;2.17;;;;;;;;;;5114775;28;20864;-80
2023/03/05 01:13:40;;;;;;;5.82;2.20;;;;;;;;;;5096625;28;20175;-81
2023/03/05 01:16:07;;;;;;;9.13;1.80;;;;;;;;;;5114711;28;20269;-81
2023/03/05 01:18:33;;;;;;;10.65;1.60;;;;;;;;;;5096560;28;20680;-81
2023/03/05 01:20:59;;;;;;;6.60;1.35;;;;;;;;;;5114819;28;21039;-81
2023/03/05 01:23:25;;;;;;;5.10;2.27;;;;;;;;;;5118750;28;20216;-81
2023/03/05 01:25:55;;;;;;;6.78;2.03;;;;;;;;;;5118374;28;20398;-81
2023/03/05 01:28:21;;;;;;;2.97;1.70;;;;;;;;;;5100767;28;20178;-81
2023/03/05 01:30:47;;;;;;;6.70;1.85;;;;;;;;;;5118820;28;20266;-81
2023/03/05 01:33:14;;;;;;;9.23;1.80;;;;;;;;;;5119238;28;20191;-81
2023/03/05 01:35:39;;;;;;;8.93;1.48;;;;;;;;;;5118492;28;20405;-80
2023/03/05 01:38:05;;;;;;;7.17;1.40;;;;;;;;;;5118336;28;20180;-80
2023/03/05 01:40:31;;;;;;;9.20;1.92;;;;;;;;;;5118711;28;20457;-80
2023/03/05 01:43:08;;;;;;;7.90;3.00;;;;;;;;;;5118087;28;20199;-81
2023/03/05 01:45:34;;;;;;;6.45;1.50;;;;;;;;;;5100613;28;20182;-80
2023/03/05 01:48:00;;;;;;;6.40;1.43;;;;;;;;;;5118512;28;20498;-81
2023/03/05 01:50:27;;;;;;;4.30;1.10;;;;;;;;;;5118677;28;20470;-80
2023/03/05 01:52:57;;;;;;;4.15;1.90;;;;;;;;;;5100099;28;20419;-81
2023/03/05 01:55:24;;;;;;;8.23;1.55;;;;;;;;;;5118913;28;20171;-80
2023/03/05 01:57:55;;;;;;;3.78;1.70;;;;;;;;;;5118473;28;20512;-80
2023/03/05 02:00:32;;;;;;;7.78;2.88;;;;;;;;;;5118852;28;20260;-81
2023/03/05 02:03:01;;;;;;;4.55;1.45;;;;;;;;;;5118123;28;20181;-81
2023/03/05 02:05:34;;;;;;;4.93;1.95;;;;;;;;;;5118384;28;20234;-81
2023/03/05 02:08:02;;;;;;;8.45;1.85;;;;;;;;;;5100308;28;20175;-81
2023/03/05 02:10:30;;;;;;;11.77;1.92;;;;;;;;;;5120544;28;20172;-81
2023/03/05 02:12:57;;;;;;;4.15;2.17;;;;;;;;;;5118301;28;20176;-81
2023/03/05 02:15:23;;;;;;;5.75;1.50;;;;;;;;;;5118522;28;20175;-80
2023/03/05 02:17:49;;;;;;;12.70;2.05;;;;;;;;;;5100511;28;20523;-80
2023/03/05 02:20:17;;;;;;;11.70;2.00;;;;;;;;;;5118325;28;20252;-80
2023/03/05 02:22:43;;;;;;;5.57;1.85;;;;;;;;;;5118277;28;20389;-82
2023/03/05 02:25:28;;;;;;;3.00;1.70;;;;;;;;;;5118360;28;20242;-82
2023/03/05 02:27:58;;;;;;;7.45;1.75;;;;;;;;;;5099654;28;20175;-80
2023/03/05 02:30:24;;;;;;;7.90;1.75;;;;;;;;;;5118329;28;20180;-81
2023/03/05 02:32:50;;;;;;;7.10;2.47;;;;;;;;;;5117295;28;20636;-81
2023/03/05 02:35:16;;;;;;;10.90;2.72;;;;;;;;;;5118135;28;20299;-81
2023/03/05 02:37:42;;;;;;;13.52;2.70;;;;;;;;;;5118195;28;20167;-81
2023/03/05 02:40:08;;;;;;;5.10;2.13;;;;;;;;;;5117735;28;20207;-81
2023/03/05 02:42:34;;;;;;;12.90;2.30;;;;;;;;;;5099792;28;20462;-81
2023/03/05 02:45:01;;;;;;;7.65;2.25;;;;;;;;;;5117701;28;20175;-81
2023/03/05 02:47:27;;;;;;;7.00;1.45;;;;;;;;;;5117883;28;20175;-81
2023/03/05 02:49:54;;;;;;;6.82;2.20;;;;;;;;;;5117579;28;20183;-80
2023/03/05 02:52:22;;;;;;;9.57;2.25;;;;;;;;;;5117904;28;20171;-81
2023/03/05 02:54:48;;;;;;;13.90;2.58;;;;;;;;;;5117204;28;20261;-81
2023/03/05 02:57:14;;;;;;;7.70;2.70;;;;;;;;;;5099473;28;20575;-81
2023/03/05 02:59:40;;;;;;;8.38;2.08;;;;;;;;;;5117652;28;20199;-80
2023/03/05 03:02:06;;;;;;;6.10;1.63;;;;;;;;;;5099151;28;20186;-81
2023/03/05 03:04:32;;;;;;;8.90;2.10;;;;;;;;;;5117041;28;20449;-81
2023/03/05 03:06:58;;;;;;;4.85;2.45;;;;;;;;;;5116980;28;20404;-81
2023/03/05 03:09:25;;;;;;;9.37;2.43;;;;;;;;;;5117557;28;20179;-81
2023/03/05 03:11:51;;;;;;;8.10;2.05;;;;;;;;;;5098919;28;20410;-81
2023/03/05 03:14:17;;;;;;;19.35;3.00;;;;;;;;;;5099135;28;20455;-81
2023/03/05 03:16:43;;;;;;;6.22;2.60;;;;;;;;;;5117514;28;20176;-81
2023/03/05 03:19:09;;;;;;;9.73;2.50;;;;;;;;;;5116672;28;20255;-81
2023/03/05 03:21:35;;;;;;;2.80;1.97;;;;;;;;;;5098531;28;20408;-81
2023/03/05 03:24:01;;;;;;;10.93;2.23;;;;;;;;;;5116362;28;20889;-81
2023/03/05 03:26:27;;;;;;;7.78;2.08;;;;;;;;;;5116558;28;20893;-80
2023/03/05 03:28:53;;;;;;;6.32;2.35;;;;;;;;;;5116632;28;20172;-81
2023/03/05 03:31:19;;;;;;;5.50;1.92;;;;;;;;;;5098070;28;20179;-81
2023/03/05 03:33:45;;;;;;;7.53;1.97;;;;;;;;;;5116446;28;20175;-81
2023/03/05 03:36:12;;;;;;;8.20;3.10;;;;;;;;;;5117143;28;20512;-81
2023/03/05 03:38:38;;;;;;;14.88;2.88;;;;;;;;;;5116396;28;20757;-81
2023/03/05 03:41:06;;;;;;;7.88;1.83;;;;;;;;;;5116676;28;20207;-81
2023/03/05 03:43:32;;;;;;;8.70;2.03;;;;;;;;;;5098493;28;20643;-81
2023/03/05 03:45:58;;;;;;;9.47;2.57;;;;;;;;;;5116567;28;20178;-81
2023/03/05 03:48:24;;;;;;;10.00;2.10;;;;;;;;;;5116697;28;20402;-81
2023/03/05 03:50:50;;;;;;;5.10;1.40;;;;;;;;;;5098191;28;20417;-81
2023/03/05 03:53:16;;;;;;;7.13;1.90;;;;;;;;;;5116228;28;20401;-81
2023/03/05 03:55:42;;;;;;;5.15;1.90;;;;;;;;;;5098290;28;20485;-81
2023/03/05 03:58:09;;;;;;;7.18;2.60;;;;;;;;;;5098579;28;20198;-81
2023/03/05 04:00:35;;;;;;;5.70;1.75;;;;;;;;;;5116547;28;20207;-81
2023/03/05 04:03:02;;;;;;;2.80;1.60;;;;;;;;;;5116102;28;20171;-81
2023/03/05 04:05:28;;;;;;;5.05;1.70;;;;;;;;;;5097646;28;20238;-81
2023/03/05 04:07:54;;;;;;;6.37;1.90;;;;;;;;;;5116333;28;20179;-81
2023/03/05 04:10:20;;;;;;;10.57;2.47;;;;;;;;;;5097761;28;20409;-81
2023/03/05 04:12:46;;;;;;;5.73;2.17;;;;;;;;;;5115629;28;20578;-81
2023/03/05 04:15:12;;;;;;;13.15;2.05;;;;;;;;;;5097229;28;20410;-81
2023/03/05 04:17:38;;;;;;;6.22;2.40;;;;;;;;;;5097987;28;20262;-81
2023/03/05 04:20:06;;;;;;;8.57;1.63;;;;;;;;;;5115265;28;20286;-81
2023/03/05 04:22:32;;;;;;;7.70;1.75;;;;;;;;;;5115635;28;20409;-81
2023/03/05 04:24:58;;;;;;;11.73;2.90;;;;;;;;;;5097163;28;20651;-81
2023/03/05 04:27:24;;;;;;;3.65;1.75;;;;;;;;;;5115449;28;20408;-81
2023/03/05 04:29:50;;;;;;;15.30;2.67;;;;;;;;;;5115611;28;20183;-81
2023/03/05 04:32:21;;;;;;;8.80;2.17;;;;;;;;;;5115813;28;20512;-81
2023/03/05 04:34:47;;;;;;;8.98;2.13;;;;;;;;;;5097459;28;20418;-81
2023/03/05 04:37:13;;;;;;;9.95;1.80;;;;;;;;;;5115021;28;20175;-81
2023/03/05 04:39:39;;;;;;;8.40;2.00;;;;;;;;;;5114948;28;20557;-81
2023/03/05 04:42:05;;;;;;;5.53;1.60;;;;;;;;;;5096856;28;20410;-81
2023/03/05 04:44:31;;;;;;;5.65;2.10;;;;;;;;;;5115306;28;20445;-81
2023/03/05 04:46:57;;;;;;;7.82;2.10;;;;;;;;;;5114949;28;20244;-81
2023/03/05 04:49:23;;;;;;;7.73;1.83;;;;;;;;;;5115063;28;20179;-81
2023/03/05 04:51:49;;;;;;;10.70;2.50;;;;;;;;;;5115087;28;20406;-81
2023/03/05 04:54:15;;;;;;;9.13;2.53;;;;;;;;;;5114654;28;20397;-81
2023/03/05 04:56:41;;;;;;;4.30;1.90;;;;;;;;;;5114968;28;20250;-81
2023/03/05 04:59:07;;;;;;;6.05;2.38;;;;;;;;;;5114344;28;20398;-81
2023/03/05 05:01:34;;;;;;;8.68;1.95;;;;;;;;;;5097054;28;20255;-81
2023/03/05 05:04:00;;;;;;;12.27;2.47;;;;;;;;;;5114843;28;20192;-81
2023/03/05 05:06:26;;;;;;;12.32;2.63;;;;;;;;;;5115006;28;20633;-81
2023/03/05 05:08:52;;;;;;;6.33;2.10;;;;;;;;;;5097707;28;20183;-81
2023/03/05 05:11:18;;;;;;;6.72;1.98;;;;;;;;;;5115600;28;20764;-81
2023/03/05 05:13:44;;;;;;;6.85;2.08;;;;;;;;;;5097722;28;20767;-81
2023/03/05 05:16:10;;;;;;;7.85;1.67;;;;;;;;;;5097009;28;20526;-81
2023/03/05 05:18:36;;;;;;;8.18;1.98;;;;;;;;;;5114877;28;20500;-81
2023/03/05 05:21:06;;;;;;;5.50;2.03;;;;;;;;;;5115324;28;20222;-81
2023/03/05 05:23:32;;;;;;;10.75;2.35;;;;;;;;;;5115463;28;20254;-81
2023/03/05 05:25:58;;;;;;;5.97;2.17;;;;;;;;;;5097029;28;20214;-81
2023/03/05 05:28:24;;;;;;;5.53;2.05;;;;;;;;;;5115136;28;20260;-81
2023/03/05 05:30:50;;;;;;;10.33;2.47;;;;;;;;;;5114891;28;20210;-81
2023/03/05 05:33:16;;;;;;;6.03;2.90;;;;;;;;;;5115022;28;20399;-81
2023/03/05 05:35:42;;;;;;;10.07;2.33;;;;;;;;;;5115221;28;20422;-81
2023/03/05 05:38:08;;;;;;;13.93;2.30;;;;;;;;;;5114911;28;20409;-81
2023/03/05 05:40:34;;;;;;;6.93;2.63;;;;;;;;;;5096881;28;20479;-81
2023/03/05 05:43:00;;;;;;;16.15;2.15;;;;;;;;;;5114317;28;20407;-81
2023/03/05 05:45:26;;;;;;;7.47;2.47;;;;;;;;;;5114777;28;20570;-81
2023/03/05 05:47:52;;;;;;;8.20;2.20;;;;;;;;;;5115104;28;20413;-81
2023/03/05 05:50:19;;;;;;;12.43;2.10;;;;;;;;;;5114557;28;20408;-81
2023/03/05 05:52:45;;;;;;;5.95;1.65;;;;;;;;;;5114988;28;20406;-81
2023/03/05 05:55:11;;;;;;;9.20;2.40;;;;;;;;;;5114730;28;20262;-81
2023/03/05 05:57:38;;;;;;;11.23;2.70;;;;;;;;;;5115498;28;20175;-81
2023/03/05 06:00:06;;;;;;;5.72;2.20;;;;;;;;;;5114389;28;20211;-81
2023/03/05 06:02:32;;;;;;;5.35;2.20;;;;;;;;;;5114771;28;20232;-81
2023/03/05 06:04:58;;;;;;;4.68;2.30;;;;;;;;;;5114687;28;20232;-82
2023/03/05 06:07:24;;;;;;;5.80;2.17;;;;;;;;;;5115907;28;20194;-81
2023/03/05 06:09:50;;;;;;;10.70;2.73;;;;;;;;;;5118476;28;20872;-81
2023/03/05 06:12:16;;;;;;;17.17;3.05;;;;;;;;;;5118539;28;20393;-81
2023/03/05 06:14:42;;;;;;;7.47;2.67;;;;;;;;;;5118471;28;20225;-81
2023/03/05 06:17:08;;;;;;;4.57;2.07;;;;;;;;;;5117887;28;20651;-81
2023/03/05 06:19:34;;;;;;;10.63;2.83;;;;;;;;;;5118483;28;20459;-81
2023/03/05 06:22:00;;;;;;;6.20;2.70;;;;;;;;;;5118253;28;20182;-81
2023/03/05 06:24:26;;;;;;;4.90;2.57;;;;;;;;;;5118572;28;20769;-81
2023/03/05 06:26:52;;;;;;;8.17;3.03;;;;;;;;;;5118266;28;20404;-81
2023/03/05 06:29:18;;;;;;;6.87;3.47;;;;;;;;;;5117967;28;20865;-81
2023/03/05 06:31:44;;;;;;;6.32;2.80;;;;;;;;;;5117835;28;20440;-81
2023/03/05 06:34:10;;;;;;;5.83;2.40;;;;;;;;;;5117659;28;20179;-81
2023/03/05 06:36:36;;;;;;;9.75;3.17;;;;;;;;;;5118237;28;20409;-81
2023/03/05 06:39:03;;;;;;;7.18;2.33;;;;;;;;;;5099764;28;20176;-81
2023/03/05 06:41:30;;;;;;;10.15;5.15;;;;;;;;;;5117608;28;20305;-81
2023/03/05 06:43:56;;;;;;;10.30;2.30;;;;;;;;;;5117965;28;20186;-81
2023/03/05 06:46:27;;;;;;;8.75;2.83;;;;;;;;;;5117522;28;20193;-81
2023/03/05 06:48:57;;;;;;;12.38;3.03;;;;;;;;;;5117538;28;20168;-81
2023/03/05 06:51:25;;;;;;;8.70;2.78;;;;;;;;;;5117632;28;20175;-81
2023/03/05 06:53:51;;;;;;;10.52;2.97;;;;;;;;;;5117877;28;20168;-82
2023/03/05 06:56:19;;;;;;;8.73;3.20;;;;;;;;;;5117348;28;20324;-81
2023/03/05 06:58:46;;;;;;;11.55;2.63;;;;;;;;;;5117605;28;20175;-81
2023/03/05 07:01:12;;;;;;;17.25;4.68;;;;;;;;;;5116988;28;20204;-81
2023/03/05 07:03:39;;;;;;;9.77;2.83;;;;;;;;;;5117176;28;20198;-81
2023/03/05 07:06:06;;;;;;;5.55;2.47;;;;;;;;;;5117297;28;20227;-81
2023/03/05 07:08:32;;;;;;;14.48;3.78;;;;;;;;;;5117259;28;20576;-82
2023/03/05 07:10:58;;;;;;;8.93;3.33;;;;;;;;;;5117295;28;20526;-81
2023/03/05 07:13:24;;;;;;;6.57;3.10;;;;;;;;;;5116687;28;20327;-81
2023/03/05 07:15:50;;;;;;;9.05;3.42;;;;;;;;;;5117204;28;20250;-81
2023/03/05 07:18:16;;;;;;;9.70;3.60;;;;;;;;;;5116251;28;20599;-81
2023/03/05 07:20:42;;;;;;;11.23;3.97;;;;;;;;;;5097797;28;20223;-81
2023/03/05 07:23:08;;;;;;;9.57;4.25;;;;;;;;;;5117100;28;20175;-81
2023/03/05 07:25:37;;;;;;;9.20;3.80;;;;;;;;;;5116958;28;20653;-81
2023/03/05 07:28:07;;;;;;;17.13;4.05;;;;;;;;;;5116661;28;20504;-81
2023/03/05 07:30:33;;;;;;;9.23;3.15;;;;;;;;;;5116829;28;20168;-81
2023/03/05 07:33:00;;;;;;;13.90;4.00;;;;;;;;;;5116497;28;20170;-81
2023/03/05 07:35:26;;;;;;;12.07;3.58;;;;;;;;;;5116115;28;20243;-81
2023/03/05 07:37:54;;;;;;;7.50;3.93;;;;;;;;;;5116716;28;20228;-81
2023/03/05 07:40:21;;;;;;;9.02;4.05;;;;;;;;;;5098725;28;20466;-81
2023/03/05 07:42:47;;;;;;;8.45;3.53;;;;;;;;;;5116781;28;20264;-81
2023/03/05 07:45:13;;;;;;;10.13;4.13;;;;;;;;;;5116177;28;20256;-81
2023/03/05 07:47:39;;;;;;;8.55;3.22;;;;;;;;;;5116264;28;20394;-81
2023/03/05 07:50:05;;;;;;;8.30;3.60;;;;;;;;;;5116295;28;20554;-81
2023/03/05 07:52:31;;;;;;;8.10;4.30;;;;;;;;;;5097748;28;20176;-81
2023/03/05 07:54:57;;;;;;;7.07;3.50;;;;;;;;;;5116686;28;20266;-81
2023/03/05 07:57:23;;;;;;;11.87;4.10;;;;;;;;;;5115741;28;20286;-81
2023/03/05 07:59:49;;;;;;;9.98;4.30;;;;;;;;;;5116033;28;20457;-81
2023/03/05 08:02:15;;;;;;;8.85;6.13;;;;;;;;;;5115690;28;20167;-81
2023/03/05 08:04:42;;;;;;;12.10;4.82;;;;;;;;;;5097948;28;20616;-80
2023/03/05 08:07:08;;;;;;;16.52;5.75;;;;;;;;;;5116269;28;20217;-81
2023/03/05 08:09:34;;;;;;;11.65;4.90;;;;;;;;;;5098293;28;20219;-81
2023/03/05 08:12:00;;;;;;;9.20;4.60;;;;;;;;;;5097523;28;20210;-81
2023/03/05 08:14:26;;;;;;;8.93;4.57;;;;;;;;;;5115719;28;20409;-81
2023/03/05 08:16:52;;;;;;;5.15;3.17;;;;;;;;;;5115825;28;20410;-81
2023/03/05 08:19:19;;;;;;;11.75;4.80;;;;;;;;;;5115617;28;20164;-81
2023/03/05 08:21:45;;;;;;;17.85;4.57;;;;;;;;;;5115790;28;20526;-81
2023/03/05 08:24:11;;;;;;;10.38;4.22;;;;;;;;;;5115773;28;20174;-81
2023/03/05 08:26:39;;;;;;;8.20;4.22;;;;;;;;;;5115394;28;20171;-81
2023/03/05 08:29:05;;;;;;;13.77;3.90;;;;;;;;;;5115767;28;20199;-81
2023/03/05 08:31:32;;;;;;;7.05;3.60;;;;;;;;;;5097482;28;20264;-81
2023/03/05 08:33:59;;;;;;;8.70;4.28;;;;;;;;;;5115818;28;20175;-81
2023/03/05 08:36:25;;;;;;;8.13;4.38;;;;;;;;;;5115094;28;20178;-81
2023/03/05 08:38:51;;;;;;;10.10;4.03;;;;;;;;;;5097091;28;20522;-81
2023/03/05 08:41:17;;;;;;;16.73;3.83;;;;;;;;;;5096918;28;20211;-80
2023/03/05 08:43:44;;;;;;;10.18;4.10;;;;;;;;;;5097187;28;20417;-81
2023/03/05 08:46:11;;;;;;;11.70;4.15;;;;;;;;;;5107921;28;20181;-80
2023/03/05 08:48:37;;;;;;;11.43;5.88;;;;;;;;;;5106326;28;20180;-81
2023/03/05 08:51:11;;;;;;;18.83;5.47;;;;;;;;;;5097793;28;20809;-79
2023/03/05 08:53:37;;;;;;;12.23;5.28;;;;;;;;;;5115422;28;20404;-78
2023/03/05 08:56:03;;;;;;;18.20;5.85;;;;;;;;;;5116000;28;20176;-80
2023/03/05 08:58:29;;;;;;;11.32;6.10;;;;;;;;;;5097059;28;20305;-79
2023/03/05 09:00:55;;;;;;;17.63;6.32;;;;;;;;;;5114860;28;20198;-78
2023/03/05 09:03:21;;;;;;;18.50;5.03;;;;;;;;;;5097656;28;20632;-79
2023/03/05 09:05:48;;;;;;;7.57;4.00;;;;;;;;;;5115517;28;20238;-79
2023/03/05 09:08:14;;;;;;;7.78;3.03;;;;;;;;;;5114844;28;20365;-79
2023/03/05 09:10:43;;;;;;;5.32;3.55;;;;;;;;;;5115293;28;20187;-79
2023/03/05 09:13:09;;;;;;;8.45;2.78;;;;;;;;;;5115992;28;20175;-80
2023/03/05 09:15:35;;;;;;;11.73;3.88;;;;;;;;;;5114983;28;20686;-78
2023/03/05 09:18:01;;;;;;;10.13;3.45;;;;;;;;;;5097916;28;20633;-78
2023/03/05 09:20:27;;;;;;;5.45;2.85;;;;;;;;;;5116093;28;20297;-77
2023/03/05 09:22:54;;;;;;;11.95;4.60;;;;;;;;;;5114858;28;20177;-78
2023/03/05 09:25:20;;;;;;;13.85;4.45;;;;;;;;;;5116197;28;20171;-78
2023/03/05 09:27:46;;;;;;;6.55;3.85;;;;;;;;;;5098075;28;20187;-78
2023/03/05 09:30:12;;;;;;;8.57;3.63;;;;;;;;;;5115212;28;20176;-78
2023/03/05 09:32:38;;;;;;;9.48;4.63;;;;;;;;;;5116090;28;20192;-78
2023/03/05 09:35:05;;;;;;;7.53;3.70;;;;;;;;;;5098386;28;20189;-78
2023/03/05 09:37:31;;;;;;;9.20;3.35;;;;;;;;;;5114841;28;20222;-77
2023/03/05 09:39:58;;;;;;;12.65;3.42;;;;;;;;;;5097626;28;20555;-78
2023/03/05 09:42:39;;;;;;;6.45;4.25;;;;;;;;;;5116423;28;20641;-77
2023/03/05 09:45:24;;;;;;;9.10;4.50;;;;;;;;;;5119096;28;20175;-78
2023/03/05 09:48:08;;;;;;;4.38;3.53;;;;;;;;;;5112884;28;20202;-79
2023/03/05 09:50:37;;;;;;;8.07;4.07;;;;;;;;;;5101393;28;20202;-79
2023/03/05 09:53:06;;;;;;;9.20;4.07;;;;;;;;;;5098582;28;20172;-78
2023/03/05 09:55:40;;;;;;;8.25;5.53;;;;;;;;;;5098784;28;20253;-78
2023/03/05 09:58:14;;;;;;;3.42;2.10;;;;;;;;;;5099395;28;20172;-78
2023/03/05 10:00:44;;;;;;;10.07;4.10;;;;;;;;;;5098841;28;20214;-79
2023/03/05 10:03:22;;;;;;;8.95;5.30;;;;;;;;;;5099157;28;20181;-82
2023/03/05 10:06:00;;;;;;;8.93;4.30;;;;;;;;;;5097838;28;20284;-77
2023/03/05 10:08:30;;;;;;;12.05;5.78;;;;;;;;;;5097195;28;20316;-77
2023/03/05 10:10:57;;;;;;;6.65;4.85;;;;;;;;;;5080501;28;20187;-77
2023/03/05 10:13:34;;;;;;;17.10;6.40;;;;;;;;;;5097350;28;20688;-79
2023/03/05 10:16:19;;;;;;;8.18;5.50;;;;;;;;;;5097650;28;20648;-79
2023/03/05 10:19:08;;;;;;;9.52;5.55;;;;;;;;;;5098412;28;20206;-79
2023/03/05 10:21:41;;;;;;;9.65;5.93;;;;;;;;;;5086251;28;20219;-79
2023/03/05 10:24:34;;;;;;;9.45;6.50;;;;;;;;;;5098490;28;20232;-78
2023/03/05 10:27:03;;;;;;;10.40;6.88;;;;;;;;;;5098388;28;20164;-78
2023/03/05 10:29:39;;;;;;;10.18;6.90;;;;;;;;;;5097507;28;20173;-79
2023/03/05 10:32:15;;;;;;;6.32;5.32;;;;;;;;;;5079642;28;20703;-79
2023/03/05 10:34:54;;;;;;;10.90;7.13;;;;;;;;;;5097673;28;20187;-78
2023/03/05 10:37:38;;;;;;;10.55;7.63;;;;;;;;;;5097119;28;20527;-78
2023/03/05 10:40:15;;;;;;;9.68;4.60;;;;;;;;;;5097931;28;20207;-80
2023/03/05 10:42:44;;;;;;;10.60;8.07;;;;;;;;;;5097974;28;20206;-79
2023/03/05 10:45:15;;;;;;;11.00;6.20;;;;;;;;;;5096662;28;20176;-83
2023/03/05 10:47:44;;;;;;;9.10;7.88;;;;;;;;;;5098221;28;20173;-79
2023/03/05 10:50:23;;;;;;;8.45;5.88;;;;;;;;;;5103520;28;20172;-78
2023/03/05 10:52:52;;;;;;;11.75;6.05;;;;;;;;;;5096456;28;20609;-78
2023/03/05 10:55:19;;;;;;;10.63;6.95;;;;;;;;;;5097846;28;20228;-79
2023/03/05 10:57:46;;;;;;;10.05;6.43;;;;;;;;;;5080079;28;20198;-78
2023/03/05 11:00:12;;;;;;;6.97;5.63;;;;;;;;;;5096786;28;20552;-81
2023/03/05 11:02:57;;;;;;;8.45;7.20;;;;;;;;;;5097922;28;20233;-79
2023/03/05 11:05:38;;;;;;;14.63;7.82;;;;;;;;;;5097543;28;20226;-79
2023/03/05 11:08:23;;;;;;;9.88;7.68;;;;;;;;;;5096648;28;20210;-78
2023/03/05 11:11:07;;;;;;;11.88;7.95;;;;;;;;;;5097585;28;20201;-78
2023/03/05 11:13:35;;;;;;;13.80;8.60;;;;;;;;;;5096012;28;20180;-79
2023/03/05 11:16:03;;;;;;;12.38;9.02;;;;;;;;;;5096804;28;20524;-78
2023/03/05 11:18:33;;;;;;;11.45;8.30;;;;;;;;;;5097559;28;20198;-78
2023/03/05 11:21:07;;;;;;;15.13;8.77;;;;;;;;;;5096413;28;20400;-79
2023/03/05 11:23:33;;;;;;;11.00;7.90;;;;;;;;;;5096779;28;20764;-78
2023/03/05 11:26:04;;;;;;;8.83;7.70;;;;;;;;;;5097713;28;20210;-79
2023/03/05 11:28:32;;;;;;;8.77;6.30;;;;;;;;;;5095662;28;20404;-78
2023/03/05 11:31:02;;;;;;;11.68;8.60;;;;;;;;;;5096878;28;20190;-82
2023/03/05 11:33:29;;;;;;;9.55;7.05;;;;;;;;;;5094946;28;20179;-83
2023/03/05 11:36:10;;;;;;;8.23;7.38;;;;;;;;;;5094642;28;20184;-82
2023/03/05 11:38:44;;;;;;;10.70;9.27;;;;;;;;;;5096048;28;20704;-82
2023/03/05 11:41:10;;;;;;;14.27;7.55;;;;;;;;;;5095782;28;20295;-83
2023/03/05 11:43:37;;;;;;;12.45;8.43;;;;;;;;;;5094520;28;20176;-84
2023/03/05 11:46:04;;;;;;;11.32;7.65;;;;;;;;;;5077502;28;20209;-83
2023/03/05 11:48:34;;;;;;;12.90;8.88;;;;;;;;;;5095488;28;20262;-83
2023/03/05 11:51:00;;;;;;;15.73;9.02;;;;;;;;;;5105532;28;20192;-83
2023/03/05 11:53:28;;;;;;;9.98;8.30;;;;;;;;;;5080323;28;20179;-83
2023/03/05 11:55:54;;;;;;;11.65;8.48;;;;;;;;;;5115910;28;20204;-85
2023/03/05 11:58:41;;;;;;;11.20;8.63;;;;;;;;;;5114694;28;20163;-82
2023/03/05 12:01:17;;;;;;;10.05;8.45;;;;;;;;;;5116069;28;20944;-83
2023/03/05 12:03:44;;;;;;;12.85;9.27;;;;;;;;;;5115551;28;20197;-82
2023/03/05 12:06:20;;;;;;;11.75;8.35;;;;;;;;;;5115009;28;20233;-81
2023/03/05 12:08:48;;;;;;;12.50;8.55;;;;;;;;;;5115869;28;20178;-81
2023/03/05 12:11:17;;;;;;;11.18;6.32;;;;;;;;;;5115809;28;20183;-84
2023/03/05 12:13:48;;;;;;;10.80;7.45;;;;;;;;;;5096900;28;20643;-82
2023/03/05 12:16:23;;;;;;;9.77;7.05;;;;;;;;;;5115553;28;20261;-84
2023/03/05 12:19:03;;;;;;;11.93;8.10;;;;;;;;;;5115524;28;20170;-82
2023/03/05 12:21:33;;;;;;;11.57;9.73;;;;;;;;;;5114302;28;20201;-81
2023/03/05 12:24:00;;;;;;;12.57;9.90;;;;;;;;;;5115812;28;20172;-81
2023/03/05 12:26:47;;;;;;;13.48;9.90;;;;;;;;;;5115890;28;20252;-81
2023/03/05 12:29:32;;;;;;;12.25;9.80;;;;;;;;;;5097740;28;20186;-81
2023/03/05 12:31:59;;;;;;;13.00;11.02;;;;;;;;;;5115401;28;20178;-82
2023/03/05 12:34:36;;;;;;;13.68;10.10;;;;;;;;;;5115127;28;20235;-80
2023/03/05 12:37:02;;;;;;;16.88;10.77;;;;;;;;;;5114811;28;20171;-81
2023/03/05 12:39:41;;;;;;;16.77;10.90;;;;;;;;;;5115356;28;20232;-81
2023/03/05 12:42:26;;;;;;;13.73;10.05;;;;;;;;;;5114326;28;20595;-82
2023/03/05 12:45:19;;;;;;;13.98;10.05;;;;;;;;;;5115510;28;20573;-82
2023/03/05 12:47:45;;;;;;;15.55;11.32;;;;;;;;;;5115496;28;20182;-81
2023/03/05 12:50:27;;;;;;;17.58;10.10;;;;;;;;;;5094244;28;20182;-82
2023/03/05 12:53:05;;;;;;;11.77;9.18;;;;;;;;;;5099852;28;20208;-80
2023/03/05 12:55:36;;;;;;;10.77;9.10;;;;;;;;;;5076958;28;20539;-80
2023/03/05 12:58:04;;;;;;;14.23;10.07;;;;;;;;;;5094152;28;20486;-81
2023/03/05 13:00:33;;;;;;;18.92;9.68;;;;;;;;;;5093502;28;20246;-82
2023/03/05 13:03:01;;;;;;;14.48;10.30;;;;;;;;;;5095059;28;20199;-82
2023/03/05 13:05:35;;;;;;;12.63;9.95;;;;;;;;;;5094154;28;20630;-81
2023/03/05 13:08:21;;;;;;;12.95;10.50;;;;;;;;;;5094350;28;20168;-81
2023/03/05 13:10:55;;;;;;;14.60;10.75;;;;;;;;;;5094555;28;20186;-81
2023/03/05 13:13:21;;;;;;;15.88;9.73;;;;;;;;;;5095416;28;20168;-81
2023/03/05 13:15:48;;;;;;;13.27;10.43;;;;;;;;;;5077265;28;20534;-81
2023/03/05 13:18:18;;;;;;;12.63;9.57;;;;;;;;;;5097280;28;20200;-81
2023/03/05 13:20:44;;;;;;;13.65;10.52;;;;;;;;;;5098484;28;20266;-81
2023/03/05 13:23:19;;;;;;;15.05;9.80;;;;;;;;;;5098799;28;20185;-81
2023/03/05 13:25:55;;;;;;;13.98;8.95;;;;;;;;;;5099019;28;20168;-81
2023/03/05 13:28:21;;;;;;;13.55;9.98;;;;;;;;;;5098419;28;20179;-81
2023/03/05 13:31:10;;;;;;;17.13;10.60;;;;;;;;;;5098695;28;20178;-82
2023/03/05 13:33:36;;;;;;;13.30;8.93;;;;;;;;;;5098791;28;20158;-79
2023/03/05 13:36:03;;;;;;;10.65;7.57;;;;;;;;;;5098967;28;20215;-79
2023/03/05 13:38:38;;;;;;;12.50;8.95;;;;;;;;;;5098579;28;20643;-80
2023/03/05 13:41:10;;;;;;;10.43;7.45;;;;;;;;;;5098707;28;20199;-80
2023/03/05 13:43:47;;;;;;;11.05;8.18;;;;;;;;;;5098625;28;20572;-80
2023/03/05 13:46:13;;;;;;;11.63;8.48;;;;;;;;;;5098603;28;20235;-80
2023/03/05 13:48:39;;;;;;;9.02;7.78;;;;;;;;;;5098620;28;20202;-80
2023/03/05 13:51:07;;;;;;;11.77;8.98;;;;;;;;;;5080377;28;20236;-80
2023/03/05 13:53:33;;;;;;;12.82;9.10;;;;;;;;;;5063745;28;20199;-81
2023/03/05 13:56:01;;;;;;;11.18;8.40;;;;;;;;;;5098357;28;20182;-83
2023/03/05 13:58:51;;;;;;;13.63;9.70;;;;;;;;;;5097568;28;20179;-82
2023/03/05 14:01:22;;;;;;;10.15;7.63;;;;;;;;;;5098233;28;20291;-82
2023/03/05 14:03:50;;;;;;;11.27;7.95;;;;;;;;;;5098304;28;20168;-83
2023/03/05 14:06:18;;;;;;;9.93;7.53;;;;;;;;;;5098064;28;20228;-82
2023/03/05 14:08:48;;;;;;;13.75;8.07;;;;;;;;;;5079613;28;20168;-81
2023/03/05 14:11:15;;;;;;;11.43;7.13;;;;;;;;;;5079918;28;20223;-82
2023/03/05 14:13:41;;;;;;;8.43;6.18;;;;;;;;;;5096950;28;20315;-83
2023/03/05 14:16:12;;;;;;;10.95;7.90;;;;;;;;;;5079760;28;20629;-78
2023/03/05 14:18:39;;;;;;;7.18;5.10;;;;;;;;;;5101909;28;20259;-79
2023/03/05 14:21:10;;;;;;;8.00;4.97;;;;;;;;;;5098199;28;20192;-80
2023/03/05 14:23:43;;;;;;;8.90;5.88;;;;;;;;;;5098354;28;20518;-78
2023/03/05 14:26:21;;;;;;;5.80;5.05;;;;;;;;;;5097759;28;20183;-78
2023/03/05 14:28:55;;;;;;;6.18;4.90;;;;;;;;;;5097921;28;20224;-81
2023/03/05 14:31:22;;;;;;;7.32;4.20;;;;;;;;;;5098369;28;20171;-80
2023/03/05 14:33:48;;;;;;;5.38;4.88;;;;;;;;;;5096599;28;20668;-80
2023/03/05 14:36:20;;;;;;;8.20;5.43;;;;;;;;;;5097373;28;20226;-79
2023/03/05 14:38:46;;;;;;;6.22;5.32;;;;;;;;;;5097658;28;20188;-79
2023/03/05 14:41:29;;;;;;;7.97;5.20;;;;;;;;;;5097227;28;20249;-78
2023/03/05 14:43:55;;;;;;;9.07;5.53;;;;;;;;;;5097432;28;20406;-79